Aérodrome :
LOGIN :

S'inscrire | Disclaimer

   EN    FR    IT 

 










Légende :    VFR   VFR Marginal   IFR   IFR Intensif   IFR Très Intensif
Visi : 
Plafond : 
>= 8 km
>= 3000ft
5 à 8 km
1000 à 3000 ft
1500m à 5 km
500 à 1000 ft
800 à 1500m
200 à 500 ft
< 800m
< 200 ft
Symboles :   Orages  Brouillard  Fortes neiges  Fortes précipitations  Vent > 20 kt
SIGMETs :   Divers  Orages  Givrage  Turbulence  Onde Orograph.  Cendres Volcan.







- Altitude de l'aérodrome : 12 ft
- Code IATA : BCN


LEBL - Barcelone

DERNIER METAR :
  • 170330Z 34006KT 9999 FEW025 17/14 Q1024 NOSIG

METARs EXPIRÉS :
  • 170300Z 34006KT 9999 FEW025 17/14 Q1024 NOSIG
  • 170230Z 34005KT 9999 FEW022 17/14 Q1024 NOSIG
  • 170200Z 33008KT 9999 FEW018 17/14 Q1024 NOSIG
  • 170130Z 33008KT 9999 FEW018 SCT045 17/14 Q1025 NOSIG
  • 170100Z 34007KT 9999 FEW018 BKN043 18/14 Q1025 NOSIG

TAF TAF LEBL
Valide du 17 à 00h jusqu'au 18 à 00h UTC


162300Z 1700/1724 33006KT 9999 SCT025 TX24/1712Z TN18/1706Z
TEMPO 1700/1709 BKN020
BECMG 1710/1712 16006KT
Pas de NOTAMs connus pour ce terrain.



MET'MAP, la Météo Aéronautique d'un coup d'oeil ! - Copyright ORBIFLY Décembre 2007 - Disclaimer

ORBIFLY MET'MAP TEAM :

Programmation & Développement : Alexandra Zaïnal
Conception & Développement : Baudouin d'Aumeries
Co-Programmation & Développement : Marc-Olivier Méhu
Soutien technique & logistique : Manuel Goepfert

Contact : metmap@orbifly.com




SOURCES & CREDITS :

   NOAA